Time,TemperatureF,DewpointF,PressureIn,WindDirection,WindDirectionDegrees,WindSpeedMPH,WindSpeedGustMPH,Humidity,HourlyPrecipIn,Conditions,Clouds,dailyrainin,SolarRadiationWatts/m^2,SoftwareType,DateUTC
2013-02-05 00:00:00,38.3,31.7,29.80,SW,236,10.0,10.0,77,0.00,-RA,OVC,0.00,0.0,WeatherDisplay:10.37,2013-02-04 23:00:00,
2013-02-05 00:10:00,38.1,31.5,29.80,West,259,9.0,10.0,77,0.00,BKN,OVC,0.00,0.0,WeatherDisplay:10.37,2013-02-04 23:10:00,
2013-02-05 00:20:00,37.9,31.4,29.80,West,263,8.0,9.0,77,0.00,BKN,OVC,0.00,0.0,WeatherDisplay:10.37,2013-02-04 23:20:00,
2013-02-05 00:30:00,37.9,31.4,29.80,West,264,8.0,8.0,77,0.00,BKN,OVC,0.00,0.0,WeatherDisplay:10.37,2013-02-04 23:30:00,
2013-02-05 00:40:00,37.9,31.0,29.80,WSW,251,9.0,10.0,76,0.00,BKN,OVC,0.00,0.0,WeatherDisplay:10.37,2013-02-04 23:40:00,
2013-02-05 00:50:00,37.8,30.9,29.80,West,260,7.0,9.0,76,0.00,BKN,OVC,0.00,0.0,WeatherDisplay:10.37,2013-02-04 23:50:00,
2013-02-05 01:00:00,37.8,30.9,29.80,West,260,6.0,7.0,76,0.00,BKN,OVC,0.00,0.0,WeatherDisplay:10.37,2013-02-05 00:00:00,
2013-02-05 01:10:00,37.6,30.7,29.80,West,273,8.0,8.0,76,0.00,CLR,OVC,0.00,0.0,WeatherDisplay:10.37,2013-02-05 00:10:00,
2013-02-05 01:20:00,37.8,30.9,29.80,WNW,282,8.0,10.0,76,0.00,CLR,OVC,0.00,0.0,WeatherDisplay:10.37,2013-02-05 00:20:00,
2013-02-05 01:30:00,37.6,30.7,29.80,West,269,8.0,8.0,76,0.00,CLR,OVC,0.00,0.0,WeatherDisplay:10.37,2013-02-05 00:30:00,
2013-02-05 01:40:00,37.4,30.5,29.77,WSW,238,6.0,8.0,76,0.00,CLR,OVC,0.00,0.0,WeatherDisplay:10.37,2013-02-05 00:40:00,
2013-02-05 01:50:00,37.0,30.2,29.77,SW,228,8.0,8.0,76,0.00,CLR,OVC,0.00,0.0,WeatherDisplay:10.37,2013-02-05 00:50:00,
2013-02-05 02:00:00,37.0,30.2,29.77,WSW,242,8.0,8.0,76,0.00,CLR,OVC,0.00,0.0,WeatherDisplay:10.37,2013-02-05 01:00:00,
2013-02-05 02:10:00,36.9,30.0,29.77,WSW,247,9.0,9.0,76,0.00,BKN,OVC,0.00,0.0,WeatherDisplay:10.37,2013-02-05 01:10:00,
2013-02-05 02:20:00,37.2,30.3,29.77,WSW,246,8.0,10.0,76,0.00,BKN,OVC,0.00,0.0,WeatherDisplay:10.37,2013-02-05 01:20:00,
2013-02-05 02:30:00,37.0,30.2,29.77,SW,233,9.0,9.0,76,0.00,BKN,OVC,0.00,0.0,WeatherDisplay:10.37,2013-02-05 01:30:00,
2013-02-05 02:40:00,37.2,30.3,29.77,WSW,243,7.0,9.0,76,0.00,BKN,OVC,0.00,0.0,WeatherDisplay:10.37,2013-02-05 01:40:00,
2013-02-05 02:50:00,37.2,30.3,29.77,WSW,245,8.0,8.0,76,0.00,BKN,OVC,0.00,0.0,WeatherDisplay:10.37,2013-02-05 01:50:00,
2013-02-05 03:00:00,37.2,30.3,29.77,WSW,252,8.0,8.0,76,0.00,BKN,OVC,0.00,0.0,WeatherDisplay:10.37,2013-02-05 02:00:00,
2013-02-05 03:10:00,37.4,30.5,29.77,SW,232,7.0,10.0,76,0.00,FEW,OVC,0.00,0.0,WeatherDisplay:10.37,2013-02-05 02:10:00,
2013-02-05 03:20:00,37.6,30.7,29.77,WSW,245,12.0,12.0,76,0.00,FEW,OVC,0.00,0.0,WeatherDisplay:10.37,2013-02-05 02:20:00,
2013-02-05 03:30:00,37.6,30.7,29.77,WSW,253,7.0,12.0,76,0.00,FEW,OVC,0.00,0.0,WeatherDisplay:10.37,2013-02-05 02:30:00,
2013-02-05 03:40:00,37.6,30.7,29.77,SW,229,7.0,7.0,76,0.00,FEW,OVC,0.00,0.0,WeatherDisplay:10.37,2013-02-05 02:40:00,
2013-02-05 03:50:00,37.6,30.7,29.74,SW,220,8.0,8.0,76,0.00,FEW,OVC,0.00,0.0,WeatherDisplay:10.37,2013-02-05 02:50:00,
2013-02-05 04:00:00,37.6,30.7,29.74,WSW,245,7.0,8.0,76,0.00,FEW,OVC,0.00,0.0,WeatherDisplay:10.37,2013-02-05 03:00:00,
2013-02-05 04:10:00,37.4,30.5,29.74,WSW,251,9.0,9.0,76,0.00,CLR,OVC,0.00,0.0,WeatherDisplay:10.37,2013-02-05 03:10:00,
2013-02-05 04:20:00,37.0,30.2,29.74,SW,216,6.0,9.0,76,0.00,CLR,OVC,0.00,0.0,WeatherDisplay:10.37,2013-02-05 03:20:00,
2013-02-05 04:30:00,37.0,30.2,29.74,SW,218,5.0,6.0,76,0.00,CLR,OVC,0.00,0.0,WeatherDisplay:10.37,2013-02-05 03:30:00,
2013-02-05 04:40:00,36.9,30.0,29.74,WSW,247,8.0,8.0,76,0.00,CLR,OVC,0.00,0.0,WeatherDisplay:10.37,2013-02-05 03:40:00,
2013-02-05 04:50:00,37.0,30.2,29.74,SSW,203,8.0,8.0,76,0.00,CLR,OVC,0.00,0.0,WeatherDisplay:10.37,2013-02-05 03:50:00,
2013-02-05 05:00:00,36.9,30.0,29.74,SSW,206,9.0,9.0,76,0.00,CLR,OVC,0.00,0.0,WeatherDisplay:10.37,2013-02-05 04:00:00,
2013-02-05 05:10:00,37.0,30.2,29.74,WSW,257,9.0,9.0,76,0.00,CLR,OVC,0.00,0.0,WeatherDisplay:10.37,2013-02-05 04:10:00,
2013-02-05 05:20:00,37.0,29.8,29.74,SW,217,6.0,9.0,75,0.00,CLR,OVC,0.00,0.0,WeatherDisplay:10.37,2013-02-05 04:20:00,
2013-02-05 05:30:00,37.0,29.8,29.74,SW,219,7.0,7.0,75,0.00,CLR,OVC,0.00,0.0,WeatherDisplay:10.37,2013-02-05 04:30:00,
2013-02-05 05:40:00,36.7,29.5,29.71,WSW,250,5.0,7.0,75,0.00,CLR,OVC,0.00,0.0,WeatherDisplay:10.37,2013-02-05 04:40:00,
2013-02-05 05:50:00,36.5,29.3,29.71,SW,220,7.0,8.0,75,0.00,CLR,OVC,0.00,0.0,WeatherDisplay:10.37,2013-02-05 04:50:00,
2013-02-05 06:00:00,36.3,29.2,29.71,SW,229,7.0,7.0,75,0.00,CLR,OVC,0.00,0.0,WeatherDisplay:10.37,2013-02-05 05:00:00,
2013-02-05 06:10:00,36.5,29.3,29.71,SW,218,7.0,9.0,75,0.00,CLR,OVC,0.00,0.0,WeatherDisplay:10.37,2013-02-05 05:10:00,
2013-02-05 06:20:00,36.5,29.3,29.71,WSW,250,8.0,8.0,75,0.00,CLR,OVC,0.00,0.0,WeatherDisplay:10.37,2013-02-05 05:20:00,
2013-02-05 06:30:00,36.3,29.2,29.71,WSW,240,7.0,8.0,75,0.00,CLR,OVC,0.00,0.0,WeatherDisplay:10.37,2013-02-05 05:30:00,
2013-02-05 06:40:00,36.1,29.0,29.71,SW,236,8.0,8.0,75,0.00,CLR,OVC,0.00,0.0,WeatherDisplay:10.37,2013-02-05 05:40:00,
2013-02-05 06:50:00,36.0,28.8,29.68,South,184,7.0,8.0,75,0.00,CLR,OVC,0.00,0.0,WeatherDisplay:10.37,2013-02-05 05:50:00,
2013-02-05 07:00:00,36.0,28.8,29.68,SSW,195,7.0,7.0,75,0.00,OVC,OVC,0.00,0.0,WeatherDisplay:10.37,2013-02-05 06:00:00,
2013-02-05 07:10:00,36.0,28.8,29.68,South,184,6.0,12.0,75,0.00,FEW,OVC,0.00,0.0,WeatherDisplay:10.37,2013-02-05 06:10:00,
2013-02-05 07:20:00,36.0,28.8,29.68,South,182,8.0,10.0,75,0.00,FEW,OVC,0.00,0.0,WeatherDisplay:10.37,2013-02-05 06:20:00,
2013-02-05 07:30:00,35.8,28.6,29.68,SSW,196,6.0,8.0,75,0.00,FEW,OVC,0.00,0.0,WeatherDisplay:10.37,2013-02-05 06:30:00,
2013-02-05 07:40:00,36.0,28.8,29.68,South,177,7.0,8.0,75,0.00,FEW,OVC,0.00,0.0,WeatherDisplay:10.37,2013-02-05 06:40:00,
2013-02-05 07:50:00,36.1,29.0,29.68,WSW,250,8.0,8.0,75,0.00,FEW,OVC,0.00,0.0,WeatherDisplay:10.37,2013-02-05 06:50:00,
2013-02-05 08:00:00,36.3,29.2,29.68,West,267,8.0,8.0,75,0.00,FEW,OVC,0.00,0.0,WeatherDisplay:10.37,2013-02-05 07:00:00,
2013-02-05 08:10:00,36.3,29.2,29.68,WSW,255,6.0,6.0,75,0.00,OVC,OVC,0.00,0.0,WeatherDisplay:10.37,2013-02-05 07:10:00,
2013-02-05 08:20:00,36.5,29.3,29.68,WSW,250,8.0,8.0,75,0.00,OVC,OVC,0.00,0.0,WeatherDisplay:10.37,2013-02-05 07:20:00,
2013-02-05 08:30:00,36.7,29.5,29.68,WSW,242,6.0,8.0,75,0.00,OVC,OVC,0.00,0.0,WeatherDisplay:10.37,2013-02-05 07:30:00,
2013-02-05 08:40:00,36.7,29.8,29.65,SSW,204,7.0,7.0,76,0.00,OVC,OVC,0.00,0.0,WeatherDisplay:10.37,2013-02-05 07:40:00,
2013-02-05 08:50:00,36.7,29.8,29.65,SW,216,7.0,8.0,76,0.00,OVC,OVC,0.00,0.0,WeatherDisplay:10.37,2013-02-05 07:50:00,
2013-02-05 09:00:00,37.0,30.2,29.65,SW,219,6.0,7.0,76,0.00,OVC,OVC,0.00,0.0,WeatherDisplay:10.37,2013-02-05 08:00:00,
2013-02-05 09:10:00,37.0,29.8,29.65,West,261,7.0,7.0,75,0.00,BKN,OVC,0.00,0.0,WeatherDisplay:10.37,2013-02-05 08:10:00,
2013-02-05 09:20:00,37.0,29.8,29.65,West,264,7.0,7.0,75,0.00,BKN,OVC,0.00,0.0,WeatherDisplay:10.37,2013-02-05 08:20:00,
2013-02-05 09:30:00,37.4,29.9,29.65,West,273,8.0,8.0,74,0.00,BKN,OVC,0.00,0.0,WeatherDisplay:10.37,2013-02-05 08:30:00,
2013-02-05 09:40:00,37.6,30.0,29.65,West,259,6.0,8.0,74,0.00,BKN,OVC,0.00,0.0,WeatherDisplay:10.37,2013-02-05 08:40:00,
2013-02-05 09:50:00,37.9,30.1,29.65,WSW,245,8.0,8.0,73,0.00,BKN,OVC,0.00,0.0,WeatherDisplay:10.37,2013-02-05 08:50:00,
2013-02-05 10:00:00,37.9,29.7,29.65,WSW,240,6.0,8.0,72,0.00,BKN,OVC,0.00,0.0,WeatherDisplay:10.37,2013-02-05 09:00:00,
2013-02-05 10:10:00,38.3,30.1,29.62,SW,235,6.0,6.0,72,0.00,BKN,OVC,0.00,0.0,WeatherDisplay:10.37,2013-02-05 09:10:00,
2013-02-05 10:20:00,38.7,30.1,29.65,SW,231,8.0,8.0,71,0.00,BKN,OVC,0.00,0.0,WeatherDisplay:10.37,2013-02-05 09:20:00,
2013-02-05 10:30:00,38.8,30.2,29.65,WSW,246,9.0,9.0,71,0.00,BKN,OVC,0.00,0.0,WeatherDisplay:10.37,2013-02-05 09:30:00,
2013-02-05 10:40:00,39.0,29.7,29.65,West,260,9.0,10.0,69,0.00,BKN,OVC,0.00,0.0,WeatherDisplay:10.37,2013-02-05 09:40:00,
2013-02-05 10:50:00,39.0,29.3,29.65,WSW,247,6.0,9.0,68,0.00,BKN,OVC,0.00,0.0,WeatherDisplay:10.37,2013-02-05 09:50:00,
2013-02-05 10:59:00,38.7,29.4,29.65,SW,229,7.0,7.0,69,0.00,BKN,OVC,0.00,0.0,WeatherDisplay:10.37,2013-02-05 09:59:00,
2013-02-05 11:10:00,38.3,29.4,29.62,SW,232,5.0,6.0,70,0.00,SCT,OVC,0.00,0.0,WeatherDisplay:10.37,2013-02-05 10:10:00,
2013-02-05 11:20:00,38.3,29.4,29.62,WSW,237,8.0,8.0,70,0.00,SCT,OVC,0.00,0.0,WeatherDisplay:10.37,2013-02-05 10:20:00,
2013-02-05 11:30:00,38.3,29.7,29.62,WSW,242,5.0,8.0,71,0.00,SCT,OVC,0.00,0.0,WeatherDisplay:10.37,2013-02-05 10:30:00,
2013-02-05 11:40:00,38.3,29.7,29.62,SSW,210,0.0,5.0,71,0.00,SCT,OVC,0.00,0.0,WeatherDisplay:10.37,2013-02-05 10:40:00,
2013-02-05 11:50:00,38.8,30.2,29.59,West,259,6.0,6.0,71,0.00,SCT,OVC,0.00,0.0,WeatherDisplay:10.37,2013-02-05 10:50:00,
2013-02-05 12:00:00,38.7,29.7,29.59,WSW,239,7.0,7.0,70,0.00,SCT,OVC,0.00,0.0,WeatherDisplay:10.37,2013-02-05 11:00:00,
2013-02-05 12:10:00,39.0,30.1,29.62,West,276,8.0,9.0,70,0.00,SCT,OVC,0.00,0.0,WeatherDisplay:10.37,2013-02-05 11:10:00,
2013-02-05 12:20:00,39.4,30.1,29.59,West,275,9.0,9.0,69,0.00,SCT,OVC,0.00,0.0,WeatherDisplay:10.37,2013-02-05 11:20:00,
2013-02-05 12:30:00,39.2,29.5,29.59,WNW,288,7.0,9.0,68,0.00,SCT,OVC,0.00,0.0,WeatherDisplay:10.37,2013-02-05 11:30:00,
2013-02-05 12:40:00,39.6,29.9,29.59,WNW,284,6.0,7.0,68,0.00,SCT,OVC,0.00,0.0,WeatherDisplay:10.37,2013-02-05 11:40:00,
2013-02-05 12:50:00,39.4,29.7,29.59,WNW,291,8.0,9.0,68,0.00,SCT,OVC,0.00,0.0,WeatherDisplay:10.37,2013-02-05 11:50:00,
2013-02-05 12:59:00,39.2,29.5,29.59,West,262,8.0,8.0,68,0.00,SCT,OVC,0.00,0.0,WeatherDisplay:10.37,2013-02-05 11:59:00,
2013-02-05 13:10:00,39.6,29.9,29.56,WSW,251,7.0,9.0,68,0.00,SCT,OVC,0.00,0.0,WeatherDisplay:10.37,2013-02-05 12:10:00,
2013-02-05 13:20:00,39.4,29.7,29.56,WSW,247,7.0,7.0,68,0.00,SCT,OVC,0.00,0.0,WeatherDisplay:10.37,2013-02-05 12:20:00,
2013-02-05 13:30:00,39.2,29.5,29.56,WSW,252,5.0,7.0,68,0.00,SCT,OVC,0.00,0.0,WeatherDisplay:10.37,2013-02-05 12:30:00,
2013-02-05 13:40:00,39.6,29.9,29.56,WSW,240,9.0,9.0,68,0.00,SCT,OVC,0.00,0.0,WeatherDisplay:10.37,2013-02-05 12:40:00,
2013-02-05 13:50:00,40.3,30.6,29.56,West,280,8.0,9.0,68,0.00,SCT,OVC,0.00,0.0,WeatherDisplay:10.37,2013-02-05 12:50:00,
2013-02-05 14:00:00,41.4,30.8,29.56,West,264,6.0,8.0,66,0.00,SCT,OVC,0.00,0.0,WeatherDisplay:10.37,2013-02-05 13:00:00,
2013-02-05 14:10:00,40.8,30.7,29.56,SSW,207,7.0,10.0,67,0.00,SCT,OVC,0.00,0.0,WeatherDisplay:10.37,2013-02-05 13:10:00,
2013-02-05 14:20:00,39.6,29.9,29.56,SW,227,9.0,9.0,68,0.00,SCT,OVC,0.00,0.0,WeatherDisplay:10.37,2013-02-05 13:20:00,
2013-02-05 14:30:00,39.2,29.5,29.56,SW,230,7.0,9.0,68,0.00,SCT,OVC,0.00,0.0,WeatherDisplay:10.37,2013-02-05 13:30:00,
2013-02-05 14:40:00,39.2,29.5,29.53,SSW,203,5.0,7.0,68,0.00,SCT,OVC,0.00,0.0,WeatherDisplay:10.37,2013-02-05 13:40:00,
2013-02-05 14:50:00,39.6,29.9,29.53,South,172,5.0,6.0,68,0.00,SCT,OVC,0.00,0.0,WeatherDisplay:10.37,2013-02-05 13:50:00,
2013-02-05 15:00:00,39.6,29.9,29.53,SSE,165,5.0,5.0,68,0.00,SCT,OVC,0.00,0.0,WeatherDisplay:10.37,2013-02-05 14:00:00,
2013-02-05 15:10:00,39.9,29.8,29.53,SSE,164,6.0,6.0,67,0.00,SCT,OVC,0.00,0.0,WeatherDisplay:10.37,2013-02-05 14:10:00,
2013-02-05 15:20:00,39.7,29.7,29.50,SSW,201,8.0,8.0,67,0.00,SCT,OVC,0.00,0.0,WeatherDisplay:10.37,2013-02-05 14:20:00,
2013-02-05 15:30:00,39.9,29.8,29.50,SSW,206,7.0,8.0,67,0.00,SCT,OVC,0.00,0.0,WeatherDisplay:10.37,2013-02-05 14:30:00,
2013-02-05 15:40:00,40.3,30.2,29.50,SW,216,7.0,7.0,67,0.00,SCT,OVC,0.00,0.0,WeatherDisplay:10.37,2013-02-05 14:40:00,
2013-02-05 15:50:00,40.3,29.8,29.50,WSW,250,7.0,7.0,66,0.00,SCT,OVC,0.00,0.0,WeatherDisplay:10.37,2013-02-05 14:50:00,
2013-02-05 15:59:00,40.6,29.8,29.50,SW,230,9.0,10.0,65,0.00,SCT,OVC,0.00,0.0,WeatherDisplay:10.37,2013-02-05 14:59:00,
2013-02-05 16:10:00,40.5,29.6,29.50,SW,236,9.0,10.0,65,0.00,SCT,OVC,0.00,0.0,WeatherDisplay:10.37,2013-02-05 15:10:00,
2013-02-05 16:20:00,40.6,29.4,29.50,WSW,254,8.0,12.0,64,0.00,SCT,OVC,0.00,0.0,WeatherDisplay:10.37,2013-02-05 15:20:00,
2013-02-05 16:30:00,40.6,29.4,29.50,WSW,252,7.0,8.0,64,0.00,SCT,OVC,0.00,0.0,WeatherDisplay:10.37,2013-02-05 15:30:00,
2013-02-05 16:40:00,39.2,28.8,29.47,WSW,254,13.0,14.0,66,0.00,SCT,OVC,0.00,0.0,WeatherDisplay:10.37,2013-02-05 15:40:00,
2013-02-05 16:50:00,38.5,29.2,29.50,SW,228,8.0,13.0,69,0.00,SCT,OVC,0.00,0.0,WeatherDisplay:10.37,2013-02-05 15:50:00,
2013-02-05 17:00:00,38.3,29.4,29.50,SW,232,9.0,9.0,70,0.00,SCT,OVC,0.00,0.0,WeatherDisplay:10.37,2013-02-05 16:00:00,
2013-02-05 17:10:00,38.5,28.8,29.50,West,263,7.0,12.0,68,0.00,FEW,OVC,0.00,0.0,WeatherDisplay:10.37,2013-02-05 16:10:00,
2013-02-05 17:20:00,37.6,28.7,29.50,WSW,240,10.0,11.0,70,0.00,FEW,OVC,0.00,0.0,WeatherDisplay:10.37,2013-02-05 16:20:00,
2013-02-05 17:30:00,37.2,28.3,29.50,WSW,245,7.0,10.0,70,0.00,FEW,OVC,0.00,0.0,WeatherDisplay:10.37,2013-02-05 16:30:00,
2013-02-05 17:40:00,37.0,27.8,29.50,WSW,256,9.0,13.0,69,0.00,FEW,OVC,0.00,0.0,WeatherDisplay:10.37,2013-02-05 16:40:00,
2013-02-05 17:50:00,37.2,27.6,29.50,West,263,10.0,11.0,68,0.00,FEW,OVC,0.00,0.0,WeatherDisplay:10.37,2013-02-05 16:50:00,
2013-02-05 18:00:00,37.0,27.5,29.50,West,274,10.0,10.0,68,0.00,FEW,OVC,0.00,0.0,WeatherDisplay:10.37,2013-02-05 17:00:00,
2013-02-05 18:10:00,37.0,27.5,29.53,West,261,9.0,10.0,68,0.00,FEW,OVC,0.00,0.0,WeatherDisplay:10.37,2013-02-05 17:10:00,
2013-02-05 18:20:00,37.0,27.5,29.53,WSW,244,12.0,12.0,68,0.00,FEW,OVC,0.00,0.0,WeatherDisplay:10.37,2013-02-05 17:20:00,
2013-02-05 18:30:00,37.0,27.5,29.53,WSW,256,8.0,12.0,68,0.00,FEW,OVC,0.00,0.0,WeatherDisplay:10.37,2013-02-05 17:30:00,
2013-02-05 18:40:00,36.9,27.3,29.53,West,270,8.0,8.0,68,0.00,FEW,OVC,0.00,0.0,WeatherDisplay:10.37,2013-02-05 17:40:00,
2013-02-05 18:50:00,36.7,27.5,29.53,WSW,254,7.0,10.0,69,0.00,FEW,OVC,0.00,0.0,WeatherDisplay:10.37,2013-02-05 17:50:00,
2013-02-05 19:00:00,36.7,27.5,29.53,WSW,237,10.0,10.0,69,0.00,FEW,OVC,0.00,0.0,WeatherDisplay:10.37,2013-02-05 18:00:00,
2013-02-05 19:10:00,36.5,26.9,29.53,SW,234,8.0,8.0,68,0.00,BKN,OVC,0.00,0.0,WeatherDisplay:10.37,2013-02-05 18:10:00,
2013-02-05 19:20:00,36.1,26.6,29.53,West,267,13.0,13.0,68,0.00,BKN,OVC,0.00,0.0,WeatherDisplay:10.37,2013-02-05 18:20:00,
2013-02-05 19:30:00,36.1,26.2,29.53,WSW,252,9.0,13.0,67,0.00,BKN,OVC,0.00,0.0,WeatherDisplay:10.37,2013-02-05 18:30:00,
2013-02-05 19:40:00,35.8,25.9,29.53,West,268,7.0,9.0,67,0.00,BKN,OVC,0.00,0.0,WeatherDisplay:10.37,2013-02-05 18:40:00,
2013-02-05 19:50:00,35.6,25.7,29.53,West,259,8.0,8.0,67,0.00,BKN,OVC,0.00,0.0,WeatherDisplay:10.37,2013-02-05 18:50:00,
2013-02-05 19:59:00,35.6,25.4,29.53,WNW,283,6.0,8.0,66,0.00,BKN,OVC,0.00,0.0,WeatherDisplay:10.37,2013-02-05 18:59:00,
2013-02-05 20:10:00,35.4,25.5,29.53,West,265,5.0,5.0,67,0.00,BKN,OVC,0.00,0.0,WeatherDisplay:10.37,2013-02-05 19:10:00,
2013-02-05 20:20:00,35.2,25.4,29.53,SW,224,5.0,6.0,67,0.00,BKN,OVC,0.00,0.0,WeatherDisplay:10.37,2013-02-05 19:20:00,
2013-02-05 20:30:00,35.2,25.4,29.53,SSW,210,3.0,5.0,67,0.00,BKN,OVC,0.00,0.0,WeatherDisplay:10.37,2013-02-05 19:30:00,
2013-02-05 20:40:00,35.1,25.6,29.53,SW,219,5.0,5.0,68,0.00,BKN,OVC,0.00,0.0,WeatherDisplay:10.37,2013-02-05 19:40:00,
2013-02-05 20:50:00,35.1,25.9,29.53,WSW,254,6.0,6.0,69,0.00,BKN,OVC,0.00,0.0,WeatherDisplay:10.37,2013-02-05 19:50:00,
2013-02-05 21:00:00,35.1,25.9,29.53,West,265,3.0,6.0,69,0.00,BKN,OVC,0.00,0.0,WeatherDisplay:10.37,2013-02-05 20:00:00,
2013-02-05 21:10:00,34.9,25.7,29.53,WSW,248,8.0,8.0,69,0.00,SCT,OVC,0.00,0.0,WeatherDisplay:10.37,2013-02-05 20:10:00,
2013-02-05 21:20:00,34.7,25.6,29.53,SW,230,7.0,8.0,69,0.00,SCT,OVC,0.00,0.0,WeatherDisplay:10.37,2013-02-05 20:20:00,
2013-02-05 21:30:00,34.7,25.6,29.53,SW,223,6.0,7.0,69,0.00,SCT,OVC,0.00,0.0,WeatherDisplay:10.37,2013-02-05 20:30:00,
2013-02-05 21:40:00,34.7,25.6,29.53,West,259,6.0,6.0,69,0.00,SCT,OVC,0.00,0.0,WeatherDisplay:10.37,2013-02-05 20:40:00,
2013-02-05 21:50:00,34.7,25.6,29.53,SW,233,6.0,6.0,69,0.00,SCT,OVC,0.00,0.0,WeatherDisplay:10.37,2013-02-05 20:50:00,
2013-02-05 22:00:00,34.5,25.4,29.53,WSW,241,5.0,6.0,69,0.00,SCT,OVC,0.00,0.0,WeatherDisplay:10.37,2013-02-05 21:00:00,
2013-02-05 22:10:00,34.3,25.6,29.50,SW,225,5.0,5.0,70,0.00,BKN,OVC,0.00,0.0,WeatherDisplay:10.37,2013-02-05 21:10:00,
2013-02-05 22:20:00,34.2,25.4,29.50,West,270,6.0,6.0,70,0.00,BKN,OVC,0.00,0.0,WeatherDisplay:10.37,2013-02-05 21:20:00,
2013-02-05 22:30:00,34.0,25.2,29.50,West,272,5.0,6.0,70,0.00,BKN,OVC,0.00,0.0,WeatherDisplay:10.37,2013-02-05 21:30:00,
2013-02-05 22:40:00,34.0,25.2,29.53,West,263,7.0,7.0,70,0.00,BKN,OVC,0.00,0.0,WeatherDisplay:10.37,2013-02-05 21:40:00,
2013-02-05 22:50:00,34.0,25.2,29.53,SW,221,7.0,7.0,70,0.00,BKN,OVC,0.00,0.0,WeatherDisplay:10.37,2013-02-05 21:50:00,
2013-02-05 23:00:00,34.0,25.2,29.53,SSW,212,5.0,7.0,70,0.00,BKN,OVC,0.00,0.0,WeatherDisplay:10.37,2013-02-05 22:00:00,
2013-02-05 23:10:00,34.0,25.2,29.50,SW,234,5.0,8.0,70,0.00,CLR,OVC,0.00,0.0,WeatherDisplay:10.37,2013-02-05 22:10:00,
2013-02-05 23:20:00,34.0,25.2,29.53,WSW,239,6.0,7.0,70,0.00,CLR,OVC,0.00,0.0,WeatherDisplay:10.37,2013-02-05 22:20:00,
2013-02-05 23:30:00,34.0,25.2,29.53,WSW,240,5.0,6.0,70,0.00,CLR,OVC,0.00,0.0,WeatherDisplay:10.37,2013-02-05 22:30:00,
2013-02-05 23:40:00,34.0,25.2,29.53,WSW,248,7.0,7.0,70,0.00,CLR,OVC,0.00,0.0,WeatherDisplay:10.37,2013-02-05 22:40:00,
2013-02-05 23:50:00,33.6,24.9,29.53,SW,235,3.0,7.0,70,0.00,CLR,OVC,0.00,0.0,WeatherDisplay:10.37,2013-02-05 22:50:00,